sensor_id;sensor_type;location;lat;lon;timestamp;P1;durP1;ratioP1;P2;durP2;ratioP2
2406;SDS011;37709;53.480;9.688;2023-04-15T00:01:54;7.63;;;6.83;;
2406;SDS011;37709;53.480;9.688;2023-04-15T00:04:24;8.07;;;7.00;;
2406;SDS011;37709;53.480;9.688;2023-04-15T00:06:51;7.20;;;6.50;;
2406;SDS011;37709;53.480;9.688;2023-04-15T00:09:19;8.97;;;6.90;;
2406;SDS011;37709;53.480;9.688;2023-04-15T00:11:47;6.27;;;5.67;;
2406;SDS011;37709;53.480;9.688;2023-04-15T00:14:16;7.23;;;6.53;;
2406;SDS011;37709;53.480;9.688;2023-04-15T00:16:43;8.40;;;5.97;;
2406;SDS011;37709;53.480;9.688;2023-04-15T00:19:11;6.93;;;5.40;;
2406;SDS011;37709;53.480;9.688;2023-04-15T00:21:38;7.77;;;5.40;;
2406;SDS011;37709;53.480;9.688;2023-04-15T00:24:06;4.90;;;4.40;;
2406;SDS011;37709;53.480;9.688;2023-04-15T00:26:33;4.20;;;3.80;;
2406;SDS011;37709;53.480;9.688;2023-04-15T00:29:01;4.70;;;4.13;;
2406;SDS011;37709;53.480;9.688;2023-04-15T00:31:28;7.20;;;5.30;;
2406;SDS011;37709;53.480;9.688;2023-04-15T00:33:57;5.50;;;5.00;;
2406;SDS011;37709;53.480;9.688;2023-04-15T00:36:25;4.17;;;3.83;;
2406;SDS011;37709;53.480;9.688;2023-04-15T00:38:52;4.43;;;4.03;;
2406;SDS011;37709;53.480;9.688;2023-04-15T00:41:19;5.30;;;4.80;;
2406;SDS011;37709;53.480;9.688;2023-04-15T00:43:49;6.00;;;4.50;;
2406;SDS011;37709;53.480;9.688;2023-04-15T00:46:16;4.77;;;4.27;;
2406;SDS011;37709;53.480;9.688;2023-04-15T00:48:46;5.23;;;4.27;;
2406;SDS011;37709;53.480;9.688;2023-04-15T00:51:14;5.67;;;4.77;;
2406;SDS011;37709;53.480;9.688;2023-04-15T00:53:42;4.97;;;4.43;;
2406;SDS011;37709;53.480;9.688;2023-04-15T00:56:09;5.80;;;5.17;;
2406;SDS011;37709;53.480;9.688;2023-04-15T00:58:36;5.90;;;5.10;;
2406;SDS011;37709;53.480;9.688;2023-04-15T01:01:03;7.07;;;5.77;;
2406;SDS011;37709;53.480;9.688;2023-04-15T01:03:32;7.33;;;5.70;;
2406;SDS011;37709;53.480;9.688;2023-04-15T01:06:00;5.83;;;5.20;;
2406;SDS011;37709;53.480;9.688;2023-04-15T01:08:30;6.53;;;5.93;;
2406;SDS011;37709;53.480;9.688;2023-04-15T01:10:59;7.20;;;6.47;;
2406;SDS011;37709;53.480;9.688;2023-04-15T01:13:29;7.77;;;6.37;;
2406;SDS011;37709;53.480;9.688;2023-04-15T01:15:57;8.93;;;6.50;;
2406;SDS011;37709;53.480;9.688;2023-04-15T01:18:25;8.17;;;7.37;;
2406;SDS011;37709;53.480;9.688;2023-04-15T01:20:53;11.63;;;8.73;;
2406;SDS011;37709;53.480;9.688;2023-04-15T01:23:23;12.87;;;8.77;;
2406;SDS011;37709;53.480;9.688;2023-04-15T01:25:50;8.80;;;6.93;;
2406;SDS011;37709;53.480;9.688;2023-04-15T01:28:19;10.67;;;8.27;;
2406;SDS011;37709;53.480;9.688;2023-04-15T01:30:46;12.10;;;9.90;;
2406;SDS011;37709;53.480;9.688;2023-04-15T01:33:14;9.43;;;7.67;;
2406;SDS011;37709;53.480;9.688;2023-04-15T01:36:00;8.70;;;7.50;;
2406;SDS011;37709;53.480;9.688;2023-04-15T01:38:27;9.90;;;8.60;;
2406;SDS011;37709;53.480;9.688;2023-04-15T01:40:55;9.90;;;7.40;;
2406;SDS011;37709;53.480;9.688;2023-04-15T01:43:25;10.20;;;7.20;;
2406;SDS011;37709;53.480;9.688;2023-04-15T01:45:54;7.67;;;6.77;;
2406;SDS011;37709;53.480;9.688;2023-04-15T01:48:23;11.70;;;7.87;;
2406;SDS011;37709;53.480;9.688;2023-04-15T01:50:53;10.57;;;8.03;;
2406;SDS011;37709;53.480;9.688;2023-04-15T01:53:22;9.70;;;6.90;;
2406;SDS011;37709;53.480;9.688;2023-04-15T01:55:51;9.40;;;7.70;;
2406;SDS011;37709;53.480;9.688;2023-04-15T01:58:20;10.07;;;6.80;;
2406;SDS011;37709;53.480;9.688;2023-04-15T02:00:49;10.20;;;6.67;;
2406;SDS011;37709;53.480;9.688;2023-04-15T02:03:18;6.37;;;5.73;;
2406;SDS011;37709;53.480;9.688;2023-04-15T02:05:47;9.47;;;6.60;;
2406;SDS011;37709;53.480;9.688;2023-04-15T02:08:16;7.57;;;6.70;;
2406;SDS011;37709;53.480;9.688;2023-04-15T02:10:45;8.10;;;5.47;;
2406;SDS011;37709;53.480;9.688;2023-04-15T02:13:13;9.77;;;7.07;;
2406;SDS011;37709;53.480;9.688;2023-04-15T02:15:46;9.27;;;6.97;;
2406;SDS011;37709;53.480;9.688;2023-04-15T02:18:16;8.80;;;7.00;;
2406;SDS011;37709;53.480;9.688;2023-04-15T02:20:44;10.40;;;7.57;;
2406;SDS011;37709;53.480;9.688;2023-04-15T02:23:14;8.37;;;6.13;;
2406;SDS011;37709;53.480;9.688;2023-04-15T02:25:44;10.90;;;6.83;;
2406;SDS011;37709;53.480;9.688;2023-04-15T02:28:21;7.50;;;5.70;;
2406;SDS011;37709;53.480;9.688;2023-04-15T02:30:49;9.40;;;6.87;;
2406;SDS011;37709;53.480;9.688;2023-04-15T02:33:20;9.27;;;6.47;;
2406;SDS011;37709;53.480;9.688;2023-04-15T02:35:49;7.60;;;6.60;;
2406;SDS011;37709;53.480;9.688;2023-04-15T02:38:17;11.57;;;7.63;;
2406;SDS011;37709;53.480;9.688;2023-04-15T02:40:46;13.27;;;8.17;;
2406;SDS011;37709;53.480;9.688;2023-04-15T02:43:16;10.00;;;6.33;;
2406;SDS011;37709;53.480;9.688;2023-04-15T02:45:45;8.40;;;6.63;;
2406;SDS011;37709;53.480;9.688;2023-04-15T02:48:14;10.03;;;6.50;;
2406;SDS011;37709;53.480;9.688;2023-04-15T02:50:46;8.40;;;7.37;;
2406;SDS011;37709;53.480;9.688;2023-04-15T02:53:17;10.10;;;6.57;;
2406;SDS011;37709;53.480;9.688;2023-04-15T02:55:47;9.73;;;7.20;;
2406;SDS011;37709;53.480;9.688;2023-04-15T02:58:15;12.10;;;7.67;;
2406;SDS011;37709;53.480;9.688;2023-04-15T03:00:44;11.10;;;6.53;;
2406;SDS011;37709;53.480;9.688;2023-04-15T03:03:12;11.37;;;7.20;;
2406;SDS011;37709;53.480;9.688;2023-04-15T03:05:43;8.30;;;6.40;;
2406;SDS011;37709;53.480;9.688;2023-04-15T03:08:11;12.30;;;7.70;;
2406;SDS011;37709;53.480;9.688;2023-04-15T03:10:41;15.90;;;7.50;;
2406;SDS011;37709;53.480;9.688;2023-04-15T03:13:11;9.93;;;6.23;;
2406;SDS011;37709;53.480;9.688;2023-04-15T03:15:40;13.00;;;7.80;;
2406;SDS011;37709;53.480;9.688;2023-04-15T03:18:10;12.60;;;8.60;;
2406;SDS011;37709;53.480;9.688;2023-04-15T03:20:41;16.30;;;9.17;;
2406;SDS011;37709;53.480;9.688;2023-04-15T03:23:10;10.70;;;8.17;;
2406;SDS011;37709;53.480;9.688;2023-04-15T03:25:39;14.20;;;7.57;;
2406;SDS011;37709;53.480;9.688;2023-04-15T03:28:08;13.93;;;8.97;;
2406;SDS011;37709;53.480;9.688;2023-04-15T03:30:36;12.87;;;7.73;;
2406;SDS011;37709;53.480;9.688;2023-04-15T03:33:05;14.50;;;8.93;;
2406;SDS011;37709;53.480;9.688;2023-04-15T03:35:34;15.23;;;9.07;;
2406;SDS011;37709;53.480;9.688;2023-04-15T03:38:03;11.70;;;7.43;;
2406;SDS011;37709;53.480;9.688;2023-04-15T03:40:31;16.90;;;9.70;;
2406;SDS011;37709;53.480;9.688;2023-04-15T03:43:00;14.10;;;8.80;;
2406;SDS011;37709;53.480;9.688;2023-04-15T03:45:29;15.10;;;9.80;;
2406;SDS011;37709;53.480;9.688;2023-04-15T03:47:58;12.33;;;9.07;;
2406;SDS011;37709;53.480;9.688;2023-04-15T03:50:44;18.63;;;8.87;;
2406;SDS011;37709;53.480;9.688;2023-04-15T03:53:13;13.00;;;7.73;;
2406;SDS011;37709;53.480;9.688;2023-04-15T03:55:42;15.73;;;9.13;;
2406;SDS011;37709;53.480;9.688;2023-04-15T03:58:11;12.53;;;7.40;;
2406;SDS011;37709;53.480;9.688;2023-04-15T04:00:40;14.27;;;8.73;;
2406;SDS011;37709;53.480;9.688;2023-04-15T04:03:09;13.43;;;9.00;;
2406;SDS011;37709;53.480;9.688;2023-04-15T04:05:39;12.17;;;7.80;;
2406;SDS011;37709;53.480;9.688;2023-04-15T04:08:09;14.97;;;8.90;;
2406;SDS011;37709;53.480;9.688;2023-04-15T04:10:38;15.67;;;9.43;;
2406;SDS011;37709;53.480;9.688;2023-04-15T04:13:07;17.10;;;9.20;;
2406;SDS011;37709;53.480;9.688;2023-04-15T04:15:35;14.33;;;9.27;;
2406;SDS011;37709;53.480;9.688;2023-04-15T04:18:04;18.30;;;10.33;;
2406;SDS011;37709;53.480;9.688;2023-04-15T04:20:33;15.70;;;9.33;;
2406;SDS011;37709;53.480;9.688;2023-04-15T04:23:02;16.37;;;9.43;;
2406;SDS011;37709;53.480;9.688;2023-04-15T04:25:31;20.37;;;9.97;;
2406;SDS011;37709;53.480;9.688;2023-04-15T04:28:00;18.70;;;9.47;;
2406;SDS011;37709;53.480;9.688;2023-04-15T04:30:28;20.30;;;10.30;;
2406;SDS011;37709;53.480;9.688;2023-04-15T04:32:57;16.13;;;8.73;;
2406;SDS011;37709;53.480;9.688;2023-04-15T04:35:26;20.60;;;10.00;;
2406;SDS011;37709;53.480;9.688;2023-04-15T04:37:55;22.40;;;10.63;;
2406;SDS011;37709;53.480;9.688;2023-04-15T04:40:23;19.20;;;9.43;;
2406;SDS011;37709;53.480;9.688;2023-04-15T04:42:52;17.70;;;9.77;;
2406;SDS011;37709;53.480;9.688;2023-04-15T04:45:21;19.23;;;10.00;;
2406;SDS011;37709;53.480;9.688;2023-04-15T04:47:50;15.50;;;9.53;;
2406;SDS011;37709;53.480;9.688;2023-04-15T04:50:19;18.13;;;9.07;;
2406;SDS011;37709;53.480;9.688;2023-04-15T04:52:47;15.23;;;9.40;;
2406;SDS011;37709;53.480;9.688;2023-04-15T04:55:15;18.47;;;8.63;;
2406;SDS011;37709;53.480;9.688;2023-04-15T04:57:44;14.37;;;8.20;;
2406;SDS011;37709;53.480;9.688;2023-04-15T05:00:13;21.80;;;11.03;;
2406;SDS011;37709;53.480;9.688;2023-04-15T05:02:42;23.00;;;12.70;;
2406;SDS011;37709;53.480;9.688;2023-04-15T05:05:11;17.57;;;9.90;;
2406;SDS011;37709;53.480;9.688;2023-04-15T05:07:40;14.57;;;9.97;;
2406;SDS011;37709;53.480;9.688;2023-04-15T05:10:09;21.27;;;10.53;;
2406;SDS011;37709;53.480;9.688;2023-04-15T05:12:38;22.47;;;12.10;;
2406;SDS011;37709;53.480;9.688;2023-04-15T05:15:07;22.70;;;12.90;;
2406;SDS011;37709;53.480;9.688;2023-04-15T05:17:35;15.67;;;9.40;;
2406;SDS011;37709;53.480;9.688;2023-04-15T05:20:04;29.10;;;12.13;;
2406;SDS011;37709;53.480;9.688;2023-04-15T05:22:33;19.40;;;10.50;;
2406;SDS011;37709;53.480;9.688;2023-04-15T05:25:03;20.27;;;12.03;;
2406;SDS011;37709;53.480;9.688;2023-04-15T05:27:31;17.97;;;10.13;;
2406;SDS011;37709;53.480;9.688;2023-04-15T05:30:00;27.30;;;14.10;;
2406;SDS011;37709;53.480;9.688;2023-04-15T05:32:29;21.80;;;11.20;;
2406;SDS011;37709;53.480;9.688;2023-04-15T05:34:58;22.40;;;12.47;;
2406;SDS011;37709;53.480;9.688;2023-04-15T05:37:27;25.60;;;13.50;;
2406;SDS011;37709;53.480;9.688;2023-04-15T05:39:55;31.40;;;15.23;;
2406;SDS011;37709;53.480;9.688;2023-04-15T05:42:24;21.87;;;12.10;;
2406;SDS011;37709;53.480;9.688;2023-04-15T05:44:52;30.47;;;13.83;;
2406;SDS011;37709;53.480;9.688;2023-04-15T05:47:21;33.90;;;16.80;;
2406;SDS011;37709;53.480;9.688;2023-04-15T05:49:50;36.93;;;17.83;;
2406;SDS011;37709;53.480;9.688;2023-04-15T05:52:19;31.00;;;14.63;;
2406;SDS011;37709;53.480;9.688;2023-04-15T05:54:47;26.77;;;14.23;;
2406;SDS011;37709;53.480;9.688;2023-04-15T05:57:15;31.23;;;15.80;;
2406;SDS011;37709;53.480;9.688;2023-04-15T05:59:44;29.63;;;14.50;;
2406;SDS011;37709;53.480;9.688;2023-04-15T06:02:13;37.43;;;16.80;;
2406;SDS011;37709;53.480;9.688;2023-04-15T06:04:42;34.23;;;16.30;;
2406;SDS011;37709;53.480;9.688;2023-04-15T06:07:10;26.43;;;14.70;;
2406;SDS011;37709;53.480;9.688;2023-04-15T06:09:40;37.10;;;16.43;;
2406;SDS011;37709;53.480;9.688;2023-04-15T06:12:08;29.37;;;15.37;;
2406;SDS011;37709;53.480;9.688;2023-04-15T06:14:39;42.20;;;18.83;;
2406;SDS011;37709;53.480;9.688;2023-04-15T06:17:08;30.70;;;17.00;;
2406;SDS011;37709;53.480;9.688;2023-04-15T06:19:36;42.70;;;19.37;;
2406;SDS011;37709;53.480;9.688;2023-04-15T06:22:05;33.20;;;18.77;;
2406;SDS011;37709;53.480;9.688;2023-04-15T06:24:34;38.97;;;20.37;;
2406;SDS011;37709;53.480;9.688;2023-04-15T06:27:04;37.63;;;20.57;;
2406;SDS011;37709;53.480;9.688;2023-04-15T06:29:33;33.40;;;17.00;;
2406;SDS011;37709;53.480;9.688;2023-04-15T06:32:01;37.70;;;17.50;;
2406;SDS011;37709;53.480;9.688;2023-04-15T06:34:30;33.37;;;18.23;;
2406;SDS011;37709;53.480;9.688;2023-04-15T06:36:59;49.37;;;21.60;;
2406;SDS011;37709;53.480;9.688;2023-04-15T06:39:28;39.37;;;20.07;;
2406;SDS011;37709;53.480;9.688;2023-04-15T06:41:56;42.70;;;19.30;;
2406;SDS011;37709;53.480;9.688;2023-04-15T06:44:25;43.00;;;19.90;;
2406;SDS011;37709;53.480;9.688;2023-04-15T06:46:53;38.40;;;19.53;;
2406;SDS011;37709;53.480;9.688;2023-04-15T06:49:22;48.20;;;22.20;;
2406;SDS011;37709;53.480;9.688;2023-04-15T06:51:51;39.57;;;20.03;;
2406;SDS011;37709;53.480;9.688;2023-04-15T06:54:20;42.27;;;20.53;;
2406;SDS011;37709;53.480;9.688;2023-04-15T06:56:48;42.00;;;21.73;;
2406;SDS011;37709;53.480;9.688;2023-04-15T06:59:17;55.50;;;26.97;;
2406;SDS011;37709;53.480;9.688;2023-04-15T07:01:46;56.60;;;25.73;;
2406;SDS011;37709;53.480;9.688;2023-04-15T07:04:14;53.23;;;25.67;;
2406;SDS011;37709;53.480;9.688;2023-04-15T07:06:43;54.53;;;26.30;;
2406;SDS011;37709;53.480;9.688;2023-04-15T07:09:12;75.30;;;28.77;;
2406;SDS011;37709;53.480;9.688;2023-04-15T07:11:40;55.30;;;23.57;;
2406;SDS011;37709;53.480;9.688;2023-04-15T07:14:09;65.03;;;27.07;;
2406;SDS011;37709;53.480;9.688;2023-04-15T07:16:37;58.27;;;26.70;;
2406;SDS011;37709;53.480;9.688;2023-04-15T07:19:06;59.13;;;27.73;;
2406;SDS011;37709;53.480;9.688;2023-04-15T07:21:35;62.83;;;27.20;;
2406;SDS011;37709;53.480;9.688;2023-04-15T07:24:04;66.23;;;27.90;;
2406;SDS011;37709;53.480;9.688;2023-04-15T07:26:34;70.67;;;28.97;;
2406;SDS011;37709;53.480;9.688;2023-04-15T07:29:02;58.47;;;28.00;;
2406;SDS011;37709;53.480;9.688;2023-04-15T07:31:31;57.93;;;28.60;;
2406;SDS011;37709;53.480;9.688;2023-04-15T07:34:01;59.13;;;27.50;;
2406;SDS011;37709;53.480;9.688;2023-04-15T07:36:30;85.03;;;33.47;;
2406;SDS011;37709;53.480;9.688;2023-04-15T07:38:58;75.43;;;33.93;;
2406;SDS011;37709;53.480;9.688;2023-04-15T07:41:29;87.77;;;34.00;;
2406;SDS011;37709;53.480;9.688;2023-04-15T07:43:59;65.37;;;30.07;;
2406;SDS011;37709;53.480;9.688;2023-04-15T07:46:28;80.70;;;33.17;;
2406;SDS011;37709;53.480;9.688;2023-04-15T07:48:57;90.13;;;34.90;;
2406;SDS011;37709;53.480;9.688;2023-04-15T07:51:25;63.37;;;29.27;;
2406;SDS011;37709;53.480;9.688;2023-04-15T07:53:54;77.67;;;31.27;;
2406;SDS011;37709;53.480;9.688;2023-04-15T07:56:23;81.70;;;31.53;;
2406;SDS011;37709;53.480;9.688;2023-04-15T07:58:51;86.73;;;35.03;;
2406;SDS011;37709;53.480;9.688;2023-04-15T08:01:20;67.60;;;30.87;;
2406;SDS011;37709;53.480;9.688;2023-04-15T08:03:49;64.53;;;31.10;;
2406;SDS011;37709;53.480;9.688;2023-04-15T08:06:18;74.47;;;33.73;;
2406;SDS011;37709;53.480;9.688;2023-04-15T08:08:48;77.87;;;34.57;;
2406;SDS011;37709;53.480;9.688;2023-04-15T08:11:17;72.70;;;31.97;;
2406;SDS011;37709;53.480;9.688;2023-04-15T08:13:46;92.97;;;36.07;;
2406;SDS011;37709;53.480;9.688;2023-04-15T08:16:18;108.23;;;36.13;;
2406;SDS011;37709;53.480;9.688;2023-04-15T08:18:51;79.20;;;34.27;;
2406;SDS011;37709;53.480;9.688;2023-04-15T08:21:21;78.03;;;34.60;;
2406;SDS011;37709;53.480;9.688;2023-04-15T08:23:50;85.60;;;36.13;;
2406;SDS011;37709;53.480;9.688;2023-04-15T08:26:19;83.10;;;35.40;;
2406;SDS011;37709;53.480;9.688;2023-04-15T08:28:48;93.60;;;39.00;;
2406;SDS011;37709;53.480;9.688;2023-04-15T08:31:17;106.00;;;40.17;;
2406;SDS011;37709;53.480;9.688;2023-04-15T08:33:46;85.67;;;39.10;;
2406;SDS011;37709;53.480;9.688;2023-04-15T08:36:15;70.33;;;35.40;;
2406;SDS011;37709;53.480;9.688;2023-04-15T08:38:44;107.47;;;40.07;;
2406;SDS011;37709;53.480;9.688;2023-04-15T08:41:58;100.97;;;41.27;;
2406;SDS011;37709;53.480;9.688;2023-04-15T08:44:08;71.10;;;35.03;;
2406;SDS011;37709;53.480;9.688;2023-04-15T08:46:37;91.57;;;38.67;;
2406;SDS011;37709;53.480;9.688;2023-04-15T08:49:11;87.33;;;37.73;;
2406;SDS011;37709;53.480;9.688;2023-04-15T08:51:41;92.90;;;39.80;;
2406;SDS011;37709;53.480;9.688;2023-04-15T08:54:09;77.70;;;36.90;;
2406;SDS011;37709;53.480;9.688;2023-04-15T08:56:38;115.20;;;43.97;;
2406;SDS011;37709;53.480;9.688;2023-04-15T08:59:08;89.20;;;43.17;;
2406;SDS011;37709;53.480;9.688;2023-04-15T09:01:40;86.70;;;40.40;;
2406;SDS011;37709;53.480;9.688;2023-04-15T09:04:09;73.17;;;38.87;;
2406;SDS011;37709;53.480;9.688;2023-04-15T09:06:40;102.60;;;42.70;;
2406;SDS011;37709;53.480;9.688;2023-04-15T09:09:09;90.63;;;42.43;;
2406;SDS011;37709;53.480;9.688;2023-04-15T09:11:37;94.13;;;41.90;;
2406;SDS011;37709;53.480;9.688;2023-04-15T09:14:08;83.83;;;41.47;;
2406;SDS011;37709;53.480;9.688;2023-04-15T09:16:54;72.20;;;36.90;;
2406;SDS011;37709;53.480;9.688;2023-04-15T09:19:24;71.87;;;37.50;;
2406;SDS011;37709;53.480;9.688;2023-04-15T09:21:53;78.87;;;41.43;;
2406;SDS011;37709;53.480;9.688;2023-04-15T09:24:32;73.17;;;39.03;;
2406;SDS011;37709;53.480;9.688;2023-04-15T09:27:04;69.73;;;37.20;;
2406;SDS011;37709;53.480;9.688;2023-04-15T09:29:35;81.77;;;41.30;;
2406;SDS011;37709;53.480;9.688;2023-04-15T09:32:11;82.13;;;40.23;;
2406;SDS011;37709;53.480;9.688;2023-04-15T09:34:43;63.50;;;34.90;;
2406;SDS011;37709;53.480;9.688;2023-04-15T09:37:15;60.40;;;35.50;;
2406;SDS011;37709;53.480;9.688;2023-04-15T09:39:59;58.63;;;36.60;;
2406;SDS011;37709;53.480;9.688;2023-04-15T09:42:28;64.33;;;37.70;;
2406;SDS011;37709;53.480;9.688;2023-04-15T09:45:08;60.10;;;37.40;;
2406;SDS011;37709;53.480;9.688;2023-04-15T09:47:39;54.60;;;35.90;;
2406;SDS011;37709;53.480;9.688;2023-04-15T09:50:09;57.00;;;34.57;;
2406;SDS011;37709;53.480;9.688;2023-04-15T09:52:41;58.10;;;36.43;;
2406;SDS011;37709;53.480;9.688;2023-04-15T09:55:11;60.93;;;37.83;;
2406;SDS011;37709;53.480;9.688;2023-04-15T09:57:40;58.87;;;38.10;;
2406;SDS011;37709;53.480;9.688;2023-04-15T10:00:11;53.83;;;32.17;;
2406;SDS011;37709;53.480;9.688;2023-04-15T10:02:41;49.23;;;35.67;;
2406;SDS011;37709;53.480;9.688;2023-04-15T10:05:10;47.57;;;31.10;;
2406;SDS011;37709;53.480;9.688;2023-04-15T10:07:41;44.63;;;32.67;;
2406;SDS011;37709;53.480;9.688;2023-04-15T10:10:10;53.03;;;34.23;;
2406;SDS011;37709;53.480;9.688;2023-04-15T10:12:40;48.13;;;34.57;;
2406;SDS011;37709;53.480;9.688;2023-04-15T10:15:13;54.33;;;35.13;;
2406;SDS011;37709;53.480;9.688;2023-04-15T10:17:44;50.20;;;32.90;;
2406;SDS011;37709;53.480;9.688;2023-04-15T10:20:16;46.80;;;33.80;;
2406;SDS011;37709;53.480;9.688;2023-04-15T10:22:46;45.90;;;33.30;;
2406;SDS011;37709;53.480;9.688;2023-04-15T10:25:15;43.23;;;32.70;;
2406;SDS011;37709;53.480;9.688;2023-04-15T10:27:45;48.63;;;33.00;;
2406;SDS011;37709;53.480;9.688;2023-04-15T10:30:15;46.73;;;35.13;;
2406;SDS011;37709;53.480;9.688;2023-04-15T10:32:45;44.60;;;32.27;;
2406;SDS011;37709;53.480;9.688;2023-04-15T10:35:14;44.80;;;33.87;;
2406;SDS011;37709;53.480;9.688;2023-04-15T10:37:47;45.97;;;35.10;;
2406;SDS011;37709;53.480;9.688;2023-04-15T10:42:54;39.53;;;31.43;;
2406;SDS011;37709;53.480;9.688;2023-04-15T10:45:25;37.10;;;28.90;;
2406;SDS011;37709;53.480;9.688;2023-04-15T10:47:57;33.27;;;29.13;;
2406;SDS011;37709;53.480;9.688;2023-04-15T10:50:31;37.83;;;29.20;;
2406;SDS011;37709;53.480;9.688;2023-04-15T10:53:01;34.97;;;27.13;;
2406;SDS011;37709;53.480;9.688;2023-04-15T10:55:34;32.00;;;27.47;;
2406;SDS011;37709;53.480;9.688;2023-04-15T10:58:02;29.63;;;26.53;;
2406;SDS011;37709;53.480;9.688;2023-04-15T11:00:31;25.90;;;22.40;;
2406;SDS011;37709;53.480;9.688;2023-04-15T11:03:06;28.77;;;25.80;;
2406;SDS011;37709;53.480;9.688;2023-04-15T11:08:11;25.27;;;22.00;;
2406;SDS011;37709;53.480;9.688;2023-04-15T11:20:54;21.10;;;18.90;;
2406;SDS011;37709;53.480;9.688;2023-04-15T11:23:31;24.43;;;21.87;;
2406;SDS011;37709;53.480;9.688;2023-04-15T11:26:00;22.40;;;20.10;;
2406;SDS011;37709;53.480;9.688;2023-04-15T11:28:33;21.83;;;19.73;;
2406;SDS011;37709;53.480;9.688;2023-04-15T11:31:05;21.77;;;19.00;;
2406;SDS011;37709;53.480;9.688;2023-04-15T11:33:43;22.63;;;19.80;;
2406;SDS011;37709;53.480;9.688;2023-04-15T11:36:23;22.70;;;20.40;;
2406;SDS011;37709;53.480;9.688;2023-04-15T11:38:56;19.00;;;17.10;;
2406;SDS011;37709;53.480;9.688;2023-04-15T11:41:26;20.97;;;18.93;;
2406;SDS011;37709;53.480;9.688;2023-04-15T11:43:54;21.00;;;18.87;;
2406;SDS011;37709;53.480;9.688;2023-04-15T11:46:30;19.63;;;17.73;;
2406;SDS011;37709;53.480;9.688;2023-04-15T11:48:59;19.40;;;17.50;;
2406;SDS011;37709;53.480;9.688;2023-04-15T11:51:32;19.60;;;17.60;;
2406;SDS011;37709;53.480;9.688;2023-04-15T11:54:00;20.73;;;17.33;;
2406;SDS011;37709;53.480;9.688;2023-04-15T11:56:28;21.40;;;19.20;;
2406;SDS011;37709;53.480;9.688;2023-04-15T11:58:57;19.57;;;17.87;;
2406;SDS011;37709;53.480;9.688;2023-04-15T12:01:35;18.17;;;16.40;;
2406;SDS011;37709;53.480;9.688;2023-04-15T12:04:09;19.13;;;17.13;;
2406;SDS011;37709;53.480;9.688;2023-04-15T12:06:44;18.60;;;16.60;;
2406;SDS011;37709;53.480;9.688;2023-04-15T12:09:12;17.70;;;15.90;;
2406;SDS011;37709;53.480;9.688;2023-04-15T12:14:18;16.40;;;14.90;;
2406;SDS011;37709;53.480;9.688;2023-04-15T12:16:57;16.10;;;14.50;;
2406;SDS011;37709;53.480;9.688;2023-04-15T12:19:27;14.90;;;13.50;;
2406;SDS011;37709;53.480;9.688;2023-04-15T12:22:07;15.20;;;13.80;;
2406;SDS011;37709;53.480;9.688;2023-04-15T12:24:36;13.33;;;12.13;;
2406;SDS011;37709;53.480;9.688;2023-04-15T12:27:08;11.73;;;10.63;;
2406;SDS011;37709;53.480;9.688;2023-04-15T12:29:38;10.20;;;9.40;;
2406;SDS011;37709;53.480;9.688;2023-04-15T12:34:38;11.03;;;10.03;;
2406;SDS011;37709;53.480;9.688;2023-04-15T12:37:11;11.23;;;10.20;;
2406;SDS011;37709;53.480;9.688;2023-04-15T12:39:42;11.80;;;10.80;;
2406;SDS011;37709;53.480;9.688;2023-04-15T12:45:03;10.10;;;9.20;;
2406;SDS011;37709;53.480;9.688;2023-04-15T12:47:31;9.03;;;8.27;;
2406;SDS011;37709;53.480;9.688;2023-04-15T12:49:58;9.63;;;8.80;;
2406;SDS011;37709;53.480;9.688;2023-04-15T12:52:26;9.37;;;8.47;;
2406;SDS011;37709;53.480;9.688;2023-04-15T12:54:54;9.40;;;8.60;;
2406;SDS011;37709;53.480;9.688;2023-04-15T12:57:22;9.17;;;8.43;;
2406;SDS011;37709;53.480;9.688;2023-04-15T12:59:49;8.10;;;7.50;;
2406;SDS011;37709;53.480;9.688;2023-04-15T13:02:17;8.77;;;7.90;;
2406;SDS011;37709;53.480;9.688;2023-04-15T13:04:45;8.43;;;7.80;;
2406;SDS011;37709;53.480;9.688;2023-04-15T13:07:12;8.00;;;7.30;;
2406;SDS011;37709;53.480;9.688;2023-04-15T13:09:41;7.80;;;7.20;;
2406;SDS011;37709;53.480;9.688;2023-04-15T13:15:03;7.27;;;6.67;;
2406;SDS011;37709;53.480;9.688;2023-04-15T13:17:31;8.00;;;7.30;;
2406;SDS011;37709;53.480;9.688;2023-04-15T13:19:59;8.03;;;7.23;;
2406;SDS011;37709;53.480;9.688;2023-04-15T13:22:27;8.03;;;7.33;;
2406;SDS011;37709;53.480;9.688;2023-04-15T13:27:50;7.77;;;7.17;;
2406;SDS011;37709;53.480;9.688;2023-04-15T13:30:18;8.50;;;7.80;;
2406;SDS011;37709;53.480;9.688;2023-04-15T13:32:45;9.00;;;8.10;;
2406;SDS011;37709;53.480;9.688;2023-04-15T13:35:15;8.80;;;8.00;;
2406;SDS011;37709;53.480;9.688;2023-04-15T13:37:48;8.27;;;7.57;;
2406;SDS011;37709;53.480;9.688;2023-04-15T13:40:18;7.77;;;7.07;;
2406;SDS011;37709;53.480;9.688;2023-04-15T13:42:46;8.40;;;7.60;;
2406;SDS011;37709;53.480;9.688;2023-04-15T13:45:15;8.57;;;7.83;;
2406;SDS011;37709;53.480;9.688;2023-04-15T13:47:43;9.03;;;8.20;;
2406;SDS011;37709;53.480;9.688;2023-04-15T13:50:11;8.70;;;7.90;;
2406;SDS011;37709;53.480;9.688;2023-04-15T13:52:39;9.40;;;8.60;;
2406;SDS011;37709;53.480;9.688;2023-04-15T13:55:06;8.60;;;7.80;;
2406;SDS011;37709;53.480;9.688;2023-04-15T13:57:47;8.83;;;8.13;;
2406;SDS011;37709;53.480;9.688;2023-04-15T14:00:14;9.43;;;8.67;;
2406;SDS011;37709;53.480;9.688;2023-04-15T14:02:42;9.37;;;8.57;;
2406;SDS011;37709;53.480;9.688;2023-04-15T14:05:10;9.30;;;8.60;;
2406;SDS011;37709;53.480;9.688;2023-04-15T14:07:38;8.83;;;8.10;;
2406;SDS011;37709;53.480;9.688;2023-04-15T14:10:06;10.00;;;9.10;;
2406;SDS011;37709;53.480;9.688;2023-04-15T14:12:34;7.73;;;7.03;;
2406;SDS011;37709;53.480;9.688;2023-04-15T14:15:01;8.43;;;7.73;;
2406;SDS011;37709;53.480;9.688;2023-04-15T14:17:29;9.43;;;8.63;;
2406;SDS011;37709;53.480;9.688;2023-04-15T14:20:00;9.20;;;8.40;;
2406;SDS011;37709;53.480;9.688;2023-04-15T14:22:28;9.17;;;8.27;;
2406;SDS011;37709;53.480;9.688;2023-04-15T14:24:55;8.20;;;7.60;;
2406;SDS011;37709;53.480;9.688;2023-04-15T14:27:22;8.40;;;7.40;;
2406;SDS011;37709;53.480;9.688;2023-04-15T14:33:08;8.17;;;7.37;;
2406;SDS011;37709;53.480;9.688;2023-04-15T14:35:36;7.93;;;7.23;;
2406;SDS011;37709;53.480;9.688;2023-04-15T14:38:04;7.30;;;6.70;;
2406;SDS011;37709;53.480;9.688;2023-04-15T14:40:36;7.90;;;6.93;;
2406;SDS011;37709;53.480;9.688;2023-04-15T14:43:04;7.40;;;6.80;;
2406;SDS011;37709;53.480;9.688;2023-04-15T14:45:31;7.03;;;6.50;;
2406;SDS011;37709;53.480;9.688;2023-04-15T14:47:59;7.40;;;6.70;;
2406;SDS011;37709;53.480;9.688;2023-04-15T14:50:27;8.33;;;7.60;;
2406;SDS011;37709;53.480;9.688;2023-04-15T14:52:54;8.70;;;6.93;;
2406;SDS011;37709;53.480;9.688;2023-04-15T14:55:22;7.40;;;6.70;;
2406;SDS011;37709;53.480;9.688;2023-04-15T14:57:49;8.23;;;7.53;;
2406;SDS011;37709;53.480;9.688;2023-04-15T15:00:17;7.70;;;7.00;;
2406;SDS011;37709;53.480;9.688;2023-04-15T15:02:44;8.27;;;7.50;;
2406;SDS011;37709;53.480;9.688;2023-04-15T15:05:13;7.57;;;6.97;;
2406;SDS011;37709;53.480;9.688;2023-04-15T15:07:41;7.80;;;7.20;;
2406;SDS011;37709;53.480;9.688;2023-04-15T15:10:08;8.97;;;8.27;;
2406;SDS011;37709;53.480;9.688;2023-04-15T15:12:36;8.50;;;7.80;;
2406;SDS011;37709;53.480;9.688;2023-04-15T15:15:03;8.60;;;7.90;;
2406;SDS011;37709;53.480;9.688;2023-04-15T15:17:52;7.90;;;7.20;;
2406;SDS011;37709;53.480;9.688;2023-04-15T15:20:20;8.20;;;7.43;;
2406;SDS011;37709;53.480;9.688;2023-04-15T15:22:47;9.30;;;8.50;;
2406;SDS011;37709;53.480;9.688;2023-04-15T15:25:15;11.37;;;8.40;;
2406;SDS011;37709;53.480;9.688;2023-04-15T15:27:44;10.03;;;9.13;;
2406;SDS011;37709;53.480;9.688;2023-04-15T15:30:12;8.87;;;8.17;;
2406;SDS011;37709;53.480;9.688;2023-04-15T15:32:40;8.50;;;7.70;;